createdAt,value
2023-05-07T00:00:09.841Z,10.20
2023-05-07T00:02:39.166Z,10.30
2023-05-07T00:05:09.672Z,10.20
2023-05-07T00:07:40.161Z,10.20
2023-05-07T00:10:10.422Z,10.10
2023-05-07T00:12:39.290Z,10.10
2023-05-07T00:15:09.763Z,10.10
2023-05-07T00:17:38.855Z,10.30
2023-05-07T00:20:08.670Z,10.30
2023-05-07T00:22:37.473Z,10.10
2023-05-07T00:25:08.447Z,10.10
2023-05-07T00:27:37.108Z,10.00
2023-05-07T00:30:06.350Z,10.00
2023-05-07T00:32:35.081Z,10.10
2023-05-07T00:35:03.793Z,10.10
2023-05-07T00:37:32.656Z,10.10
2023-05-07T00:40:01.710Z,10.20
2023-05-07T00:42:33.561Z,10.20
2023-05-07T00:45:02.564Z,10.20
2023-05-07T00:47:31.616Z,10.20
2023-05-07T00:50:00.947Z,10.20
2023-05-07T00:52:30.016Z,10.20
2023-05-07T00:54:58.723Z,10.30
2023-05-07T00:57:27.776Z,10.30
2023-05-07T00:59:58.281Z,10.30
2023-05-07T01:02:28.692Z,10.20
2023-05-07T01:04:59.233Z,10.10
2023-05-07T01:07:29.197Z,10.20
2023-05-07T01:09:58.235Z,10.10
2023-05-07T01:12:28.925Z,10.10
2023-05-07T01:14:59.722Z,10.10
2023-05-07T01:17:28.466Z,9.90
2023-05-07T01:19:57.189Z,9.90
2023-05-07T01:22:33.304Z,9.90
2023-05-07T01:25:02.902Z,9.90
2023-05-07T01:27:31.475Z,9.80
2023-05-07T01:30:00.073Z,9.90
2023-05-07T01:32:34.756Z,10.00
2023-05-07T01:35:05.239Z,10.00
2023-05-07T01:37:36.052Z,10.10
2023-05-07T01:40:06.781Z,10.20
2023-05-07T01:42:36.107Z,10.00
2023-05-07T01:45:05.157Z,9.90
2023-05-07T01:47:34.418Z,9.90
2023-05-07T01:50:03.739Z,9.80
2023-05-07T01:52:32.468Z,9.80
2023-05-07T01:55:02.855Z,9.80
2023-05-07T01:57:31.565Z,9.70
2023-05-07T02:00:00.332Z,9.70
2023-05-07T02:02:29.209Z,9.70
2023-05-07T02:04:58.424Z,9.60
2023-05-07T02:07:27.154Z,9.60
2023-05-07T02:09:56.539Z,9.60
2023-05-07T02:12:26.633Z,9.60
2023-05-07T02:14:55.193Z,9.70
2023-05-07T02:17:23.889Z,9.60
2023-05-07T02:19:52.529Z,9.50
2023-05-07T02:22:21.119Z,9.60
2023-05-07T02:24:50.346Z,9.70
2023-05-07T02:27:19.047Z,9.60
2023-05-07T02:29:49.116Z,9.60
2023-05-07T02:32:17.768Z,9.70
2023-05-07T02:34:46.378Z,9.50
2023-05-07T02:37:15.291Z,9.50
2023-05-07T02:39:43.889Z,9.70
2023-05-07T02:42:12.546Z,9.70
2023-05-07T02:44:41.244Z,9.80
2023-05-07T02:47:11.611Z,9.80
2023-05-07T02:49:40.310Z,9.70
2023-05-07T02:52:09.351Z,9.80
2023-05-07T02:54:38.044Z,9.80
2023-05-07T02:57:06.799Z,9.70
2023-05-07T02:59:35.501Z,9.50
2023-05-07T03:02:05.279Z,9.50
2023-05-07T03:04:35.510Z,9.50
2023-05-07T03:07:04.316Z,9.70
2023-05-07T03:09:32.992Z,9.60
2023-05-07T03:12:02.869Z,9.50
2023-05-07T03:14:31.656Z,9.40
2023-05-07T03:17:00.298Z,9.40
2023-05-07T03:19:28.999Z,9.40
2023-05-07T03:21:59.158Z,9.40
2023-05-07T03:24:27.768Z,9.40
2023-05-07T03:26:56.403Z,9.40
2023-05-07T03:29:25.084Z,9.60
2023-05-07T03:31:53.887Z,9.70
2023-05-07T03:34:23.440Z,9.70
2023-05-07T03:36:52.139Z,9.70
2023-05-07T03:39:22.231Z,9.50
2023-05-07T03:41:50.824Z,9.60
2023-05-07T03:44:19.560Z,9.50
2023-05-07T03:46:48.280Z,9.60
2023-05-07T03:49:16.983Z,9.60
2023-05-07T03:51:45.656Z,9.70
2023-05-07T03:54:14.544Z,9.50
2023-05-07T03:56:44.588Z,9.40
2023-05-07T03:59:13.295Z,9.60
2023-05-07T04:01:41.941Z,9.70
2023-05-07T04:04:10.662Z,9.60
2023-05-07T04:06:39.796Z,9.50
2023-05-07T04:09:09.414Z,9.50
2023-05-07T04:11:38.445Z,9.60
2023-05-07T04:14:08.623Z,9.50
2023-05-07T04:16:37.998Z,9.50
2023-05-07T04:19:06.907Z,9.40
2023-05-07T04:21:35.607Z,9.40
2023-05-07T04:24:06.212Z,9.50
2023-05-07T04:26:35.139Z,9.70
2023-05-07T04:29:03.780Z,9.60
2023-05-07T04:31:34.270Z,9.60
2023-05-07T04:34:02.884Z,9.50
2023-05-07T04:36:31.522Z,9.60
2023-05-07T04:39:00.181Z,9.60
2023-05-07T04:41:28.820Z,9.50
2023-05-07T04:43:58.087Z,9.70
2023-05-07T04:46:26.831Z,9.60
2023-05-07T04:48:56.965Z,9.80
2023-05-07T04:51:25.739Z,9.70
2023-05-07T04:53:54.387Z,9.80
2023-05-07T04:56:23.133Z,9.90
2023-05-07T04:58:52.294Z,9.90
2023-05-07T05:01:20.979Z,9.90
2023-05-07T05:03:49.761Z,10.20
2023-05-07T05:06:19.998Z,10.20
2023-05-07T05:08:48.869Z,10.20
2023-05-07T05:11:17.716Z,10.30
2023-05-07T05:13:48.594Z,10.30
2023-05-07T05:16:17.509Z,10.10
2023-05-07T05:18:46.641Z,10.20
2023-05-07T05:21:15.587Z,10.30
2023-05-07T05:23:45.844Z,10.30
2023-05-07T05:26:14.716Z,10.40
2023-05-07T05:28:43.599Z,10.40
2023-05-07T05:31:12.611Z,10.20
2023-05-07T05:33:41.450Z,10.00
2023-05-07T05:36:13.279Z,10.10
2023-05-07T05:38:42.152Z,10.10
2023-05-07T05:41:12.274Z,10.00
2023-05-07T05:43:40.983Z,9.90
2023-05-07T05:46:12.351Z,9.90
2023-05-07T05:48:41.176Z,10.00
2023-05-07T05:51:09.973Z,10.10
2023-05-07T05:53:40.759Z,10.20
2023-05-07T05:56:11.312Z,10.10
2023-05-07T05:58:40.106Z,10.00
2023-05-07T06:01:08.877Z,10.10
2023-05-07T06:03:37.621Z,10.00
2023-05-07T06:06:06.742Z,10.00
2023-05-07T06:08:36.537Z,10.00
2023-05-07T06:11:05.287Z,10.10
2023-05-07T06:13:35.468Z,10.00
2023-05-07T06:16:04.276Z,9.90
2023-05-07T06:18:33.033Z,10.00
2023-05-07T06:21:01.809Z,10.10
2023-05-07T06:23:30.619Z,10.10
2023-05-07T06:25:59.461Z,10.30
2023-05-07T06:28:28.826Z,10.30
2023-05-07T06:31:13.226Z,10.10
2023-05-07T06:33:41.992Z,10.20
2023-05-07T06:36:11.244Z,10.30
2023-05-07T06:38:39.946Z,10.40
2023-05-07T06:41:09.107Z,10.60
2023-05-07T06:43:38.661Z,10.70
2023-05-07T06:46:09.854Z,10.70
2023-05-07T06:48:38.660Z,10.70
2023-05-07T06:51:07.709Z,10.60
2023-05-07T06:53:38.645Z,10.60
2023-05-07T06:56:08.004Z,10.50
2023-05-07T06:58:36.716Z,10.50
2023-05-07T07:01:05.741Z,10.50
2023-05-07T07:03:35.992Z,10.70
2023-05-07T07:06:05.024Z,10.60
2023-05-07T07:08:33.722Z,10.70
2023-05-07T07:11:02.490Z,10.90
2023-05-07T07:13:31.196Z,11.00
2023-05-07T07:16:00.183Z,10.90
2023-05-07T07:18:29.122Z,10.80
2023-05-07T07:20:59.347Z,10.90
2023-05-07T07:23:28.092Z,11.00
2023-05-07T07:25:56.897Z,11.10
2023-05-07T07:28:25.711Z,11.30
2023-05-07T07:30:54.491Z,11.50
2023-05-07T07:33:23.263Z,11.30
2023-05-07T07:35:52.020Z,11.20
2023-05-07T07:38:23.034Z,11.50
2023-05-07T07:40:51.778Z,11.80
2023-05-07T07:43:20.835Z,12.00
2023-05-07T07:45:49.559Z,12.10
2023-05-07T07:48:18.337Z,12.10
2023-05-07T07:50:47.514Z,12.20
2023-05-07T07:53:16.580Z,12.10
2023-05-07T07:55:47.235Z,11.90
2023-05-07T07:58:16.443Z,11.60
2023-05-07T08:00:45.374Z,11.30
2023-05-07T08:03:14.513Z,11.10
2023-05-07T08:05:44.138Z,11.20
2023-05-07T08:08:13.253Z,11.20
2023-05-07T08:10:42.107Z,11.00
2023-05-07T08:13:12.695Z,10.90
2023-05-07T08:15:42.428Z,10.80
2023-05-07T08:18:11.126Z,10.80
2023-05-07T08:20:40.902Z,10.60
2023-05-07T08:23:20.112Z,10.80
2023-05-07T08:25:49.413Z,11.00
2023-05-07T08:28:23.659Z,10.70
2023-05-07T08:30:52.924Z,10.60
2023-05-07T08:33:22.255Z,10.70
2023-05-07T08:35:51.074Z,10.80
2023-05-07T08:38:19.728Z,11.10
2023-05-07T08:40:48.363Z,11.10
2023-05-07T08:43:17.783Z,11.20
2023-05-07T08:45:52.036Z,11.20
2023-05-07T08:48:24.367Z,11.20
2023-05-07T08:50:53.589Z,11.10
2023-05-07T08:53:23.466Z,11.20
2023-05-07T08:55:52.721Z,10.80
2023-05-07T08:58:24.441Z,10.80
2023-05-07T09:00:57.165Z,10.80
2023-05-07T09:03:27.139Z,10.70
2023-05-07T09:05:56.608Z,10.80
2023-05-07T09:08:28.444Z,10.80
2023-05-07T09:10:57.327Z,10.90
2023-05-07T09:13:26.352Z,11.00
2023-05-07T09:15:57.737Z,11.30
2023-05-07T09:18:27.952Z,11.40
2023-05-07T09:20:58.051Z,11.50
2023-05-07T09:23:27.419Z,11.60
2023-05-07T09:26:03.193Z,11.40
2023-05-07T09:28:34.280Z,11.40
2023-05-07T09:31:04.760Z,11.20
2023-05-07T09:33:33.649Z,11.10
2023-05-07T09:36:06.608Z,11.20
2023-05-07T09:38:36.444Z,11.20
2023-05-07T09:41:06.853Z,11.10
2023-05-07T09:43:36.767Z,11.40
2023-05-07T09:46:16.048Z,12.00
2023-05-07T09:48:48.358Z,12.50
2023-05-07T09:51:28.248Z,12.80
2023-05-07T09:54:01.803Z,13.50
2023-05-07T09:56:32.452Z,13.70
2023-05-07T09:59:04.631Z,13.80
2023-05-07T10:01:38.662Z,13.70
2023-05-07T10:04:09.639Z,13.90
2023-05-07T10:06:38.948Z,14.30
2023-05-07T10:09:08.360Z,14.60
2023-05-07T10:11:38.333Z,14.90
2023-05-07T10:14:08.167Z,14.70
2023-05-07T10:16:40.662Z,14.40
2023-05-07T10:19:11.275Z,14.50
2023-05-07T10:21:41.409Z,14.60
2023-05-07T10:24:16.294Z,14.70
2023-05-07T10:26:48.056Z,14.60
2023-05-07T10:29:21.521Z,14.40
2023-05-07T10:32:10.265Z,14.30
2023-05-07T10:34:43.164Z,14.30
2023-05-07T10:37:13.601Z,14.10
2023-05-07T10:39:44.084Z,14.20
2023-05-07T10:42:14.649Z,13.70
2023-05-07T10:44:43.823Z,13.60
2023-05-07T10:47:15.984Z,13.60
2023-05-07T10:50:22.206Z,13.50
2023-05-07T10:53:27.808Z,13.50
2023-05-07T10:56:27.672Z,13.60
2023-05-07T10:58:56.730Z,13.80
2023-05-07T11:01:54.367Z,13.90
2023-05-07T11:04:29.056Z,13.90
2023-05-07T11:07:29.332Z,13.20
2023-05-07T11:10:09.212Z,12.90
2023-05-07T11:12:54.575Z,12.90
2023-05-07T11:15:51.008Z,13.00
2023-05-07T11:18:20.824Z,13.10
2023-05-07T11:20:53.990Z,13.20
2023-05-07T11:24:00.747Z,13.20
2023-05-07T11:26:31.484Z,13.30
2023-05-07T11:29:01.575Z,13.40
2023-05-07T11:31:33.206Z,13.10
2023-05-07T11:34:03.452Z,13.00
2023-05-07T11:36:34.712Z,13.10
2023-05-07T11:39:03.952Z,13.30
2023-05-07T11:41:44.492Z,13.60
2023-05-07T11:44:13.527Z,13.80
2023-05-07T11:46:46.540Z,14.00
2023-05-07T11:49:15.501Z,14.20
2023-05-07T11:51:47.837Z,14.00
2023-05-07T11:54:19.020Z,13.80
2023-05-07T11:56:48.797Z,13.40
2023-05-07T11:59:21.162Z,13.10
2023-05-07T12:01:50.633Z,13.10
2023-05-07T12:04:23.489Z,13.30
2023-05-07T12:06:59.031Z,13.70
2023-05-07T12:09:28.536Z,14.00
2023-05-07T12:11:58.054Z,14.00
2023-05-07T12:14:30.908Z,14.00
2023-05-07T12:17:00.219Z,13.80
2023-05-07T12:19:29.143Z,13.60
2023-05-07T12:21:59.854Z,13.70
2023-05-07T12:24:28.630Z,13.50
2023-05-07T12:26:57.578Z,13.30
2023-05-07T12:29:26.345Z,13.50
2023-05-07T12:31:55.147Z,13.30
2023-05-07T12:34:25.703Z,13.20
2023-05-07T12:36:54.636Z,13.20
2023-05-07T12:39:25.064Z,13.00
2023-05-07T12:41:57.989Z,13.10
2023-05-07T12:44:27.410Z,13.20
2023-05-07T12:46:56.494Z,13.50
2023-05-07T12:49:27.229Z,13.70
2023-05-07T12:51:56.733Z,13.40
2023-05-07T12:54:33.384Z,13.20
2023-05-07T12:57:07.170Z,13.30
2023-05-07T12:59:36.700Z,13.50
2023-05-07T13:02:05.483Z,13.70
2023-05-07T13:04:34.350Z,13.60
2023-05-07T13:07:03.582Z,13.60
2023-05-07T13:09:34.025Z,13.20
2023-05-07T13:12:02.821Z,13.20
2023-05-07T13:14:31.629Z,13.30
2023-05-07T13:17:00.442Z,13.10
2023-05-07T13:19:30.375Z,13.00
2023-05-07T13:22:00.179Z,12.90
2023-05-07T13:24:28.909Z,12.80
2023-05-07T13:26:59.057Z,12.80
2023-05-07T13:29:31.135Z,12.80
2023-05-07T13:32:00.274Z,12.60
2023-05-07T13:34:29.011Z,12.40
2023-05-07T13:36:57.951Z,12.70
2023-05-07T13:39:26.764Z,13.00
2023-05-07T13:41:55.629Z,13.20
2023-05-07T13:44:25.994Z,13.30
2023-05-07T13:46:54.784Z,13.40
2023-05-07T13:49:23.625Z,13.20
2023-05-07T13:51:52.367Z,13.00
2023-05-07T13:54:21.162Z,13.00
2023-05-07T13:56:50.006Z,13.10
2023-05-07T13:59:18.887Z,12.80
2023-05-07T14:01:49.277Z,12.70
2023-05-07T14:04:18.090Z,12.40
2023-05-07T14:06:47.172Z,12.30
2023-05-07T14:09:16.357Z,12.40
2023-05-07T14:11:45.663Z,12.40
2023-05-07T14:14:14.655Z,12.60
2023-05-07T14:16:43.733Z,12.70
2023-05-07T14:19:15.699Z,12.80
2023-05-07T14:21:44.937Z,12.60
2023-05-07T14:24:15.838Z,12.40
2023-05-07T14:26:50.610Z,12.20
2023-05-07T14:29:23.992Z,12.10
2023-05-07T14:31:53.412Z,12.00
2023-05-07T14:34:24.263Z,12.20
2023-05-07T14:36:53.714Z,12.00
2023-05-07T14:39:23.034Z,12.10
2023-05-07T14:41:52.037Z,12.50
2023-05-07T14:44:21.142Z,12.80
2023-05-07T14:46:50.418Z,13.10
2023-05-07T14:49:20.956Z,13.10
2023-05-07T14:51:51.464Z,12.80
2023-05-07T14:54:20.408Z,12.70
2023-05-07T14:56:49.313Z,12.40
2023-05-07T14:59:20.784Z,12.30
2023-05-07T15:01:50.010Z,12.10
2023-05-07T15:04:18.932Z,12.30
2023-05-07T15:06:48.231Z,12.30
2023-05-07T15:09:18.703Z,12.40
2023-05-07T15:11:50.924Z,12.40
2023-05-07T15:14:20.205Z,12.40
2023-05-07T15:16:52.047Z,12.50
2023-05-07T15:19:21.390Z,12.70
2023-05-07T15:22:05.642Z,12.60
2023-05-07T15:24:41.556Z,12.70
2023-05-07T15:27:13.091Z,12.70
2023-05-07T15:29:44.624Z,12.70
2023-05-07T15:32:32.885Z,12.40
2023-05-07T15:35:02.915Z,12.20
2023-05-07T15:37:33.630Z,12.20
2023-05-07T15:40:07.747Z,12.40
2023-05-07T15:42:36.798Z,12.50
2023-05-07T15:45:06.828Z,12.50
2023-05-07T15:47:38.453Z,12.40
2023-05-07T15:50:13.150Z,12.10
2023-05-07T15:52:42.114Z,12.10
2023-05-07T15:55:15.587Z,12.10
2023-05-07T15:57:48.809Z,12.10
2023-05-07T16:00:21.358Z,12.00
2023-05-07T16:02:55.081Z,11.90
2023-05-07T16:05:24.294Z,11.90
2023-05-07T16:07:56.565Z,12.00
2023-05-07T16:10:28.789Z,12.20
2023-05-07T16:12:57.527Z,12.10
2023-05-07T16:15:26.754Z,12.10
2023-05-07T16:17:58.433Z,12.20
2023-05-07T16:20:31.236Z,12.10
2023-05-07T16:23:00.392Z,12.10
2023-05-07T16:25:32.107Z,11.90
2023-05-07T16:28:01.966Z,11.70
2023-05-07T16:30:30.877Z,11.60
2023-05-07T16:32:59.920Z,11.50
2023-05-07T16:35:31.646Z,11.60
2023-05-07T16:38:05.450Z,11.70
2023-05-07T16:40:37.619Z,11.70
2023-05-07T16:43:06.946Z,11.60
2023-05-07T16:45:36.150Z,11.70
2023-05-07T16:48:09.013Z,11.70
2023-05-07T16:50:38.467Z,11.70
2023-05-07T16:53:10.647Z,11.70
2023-05-07T16:56:01.174Z,11.80
2023-05-07T16:58:36.162Z,11.80
2023-05-07T17:01:07.080Z,11.70
2023-05-07T17:03:38.813Z,11.60
2023-05-07T17:06:19.751Z,11.60
2023-05-07T17:08:53.741Z,11.50
2023-05-07T17:11:37.844Z,11.40
2023-05-07T17:14:16.041Z,11.20
2023-05-07T17:16:48.155Z,11.40
2023-05-07T17:19:36.167Z,11.40
2023-05-07T17:22:14.230Z,11.40
2023-05-07T17:24:45.795Z,11.30
2023-05-07T17:27:26.687Z,11.10
2023-05-07T17:29:56.956Z,11.00
2023-05-07T17:32:25.807Z,11.00
2023-05-07T17:34:55.303Z,11.00
2023-05-07T17:37:25.251Z,10.90
2023-05-07T17:39:58.691Z,10.90
2023-05-07T17:42:29.731Z,10.80
2023-05-07T17:44:59.009Z,10.80
2023-05-07T17:47:28.152Z,10.70
2023-05-07T17:49:57.406Z,10.70
2023-05-07T17:52:26.837Z,10.80
2023-05-07T17:54:56.228Z,10.80
2023-05-07T17:57:25.344Z,10.90
2023-05-07T17:59:56.274Z,10.90
2023-05-07T18:02:25.841Z,10.80
2023-05-07T18:04:56.681Z,10.70
2023-05-07T18:07:26.174Z,10.70
2023-05-07T18:09:55.618Z,10.80
2023-05-07T18:12:27.368Z,10.80
2023-05-07T18:14:58.719Z,10.80
2023-05-07T18:17:28.210Z,10.70
2023-05-07T18:19:57.583Z,10.60
2023-05-07T18:22:29.019Z,10.60
2023-05-07T18:24:59.105Z,10.50
2023-05-07T18:27:29.859Z,10.50
2023-05-07T18:30:01.637Z,10.60
2023-05-07T18:32:31.478Z,10.60
2023-05-07T18:35:01.598Z,10.50
2023-05-07T18:37:31.835Z,10.40
2023-05-07T18:40:04.315Z,10.40
2023-05-07T18:42:36.856Z,10.50
2023-05-07T18:45:09.878Z,10.50
2023-05-07T18:47:39.217Z,10.40
2023-05-07T18:50:09.665Z,10.40
2023-05-07T18:52:42.832Z,10.40
2023-05-07T18:55:16.877Z,10.50
2023-05-07T18:57:46.628Z,10.50
2023-05-07T19:00:19.874Z,10.30
2023-05-07T19:02:50.259Z,10.30
2023-05-07T19:05:20.741Z,10.30
2023-05-07T19:07:51.970Z,10.40
2023-05-07T19:10:23.650Z,10.30
2023-05-07T19:12:56.243Z,10.30
2023-05-07T19:15:50.118Z,10.30
2023-05-07T19:18:34.032Z,10.30
2023-05-07T19:21:11.918Z,10.40
2023-05-07T19:24:04.058Z,10.30
2023-05-07T19:26:45.035Z,10.20
2023-05-07T19:29:32.428Z,10.20
2023-05-07T19:32:09.077Z,10.20
2023-05-07T19:34:43.736Z,10.30
2023-05-07T19:37:23.704Z,10.20
2023-05-07T19:40:10.218Z,10.20
2023-05-07T19:42:51.361Z,10.20
2023-05-07T19:45:26.331Z,10.10
2023-05-07T19:47:59.330Z,10.10
2023-05-07T19:50:30.239Z,10.10
2023-05-07T19:53:05.890Z,9.90
2023-05-07T19:55:45.002Z,9.90
2023-05-07T19:58:27.104Z,10.00
2023-05-07T20:00:58.983Z,10.00
2023-05-07T20:03:32.663Z,10.00
2023-05-07T20:06:03.820Z,10.00
2023-05-07T20:08:34.452Z,10.10
2023-05-07T20:11:04.588Z,10.00
2023-05-07T20:13:34.907Z,10.00
2023-05-07T20:16:05.820Z,9.90
2023-05-07T20:18:38.009Z,10.00
2023-05-07T20:21:08.441Z,10.10
2023-05-07T20:23:38.294Z,10.10
2023-05-07T20:26:08.062Z,10.00
2023-05-07T20:28:39.233Z,9.90
2023-05-07T20:31:08.908Z,9.90
2023-05-07T20:33:41.375Z,10.00
2023-05-07T20:36:11.390Z,10.00
2023-05-07T20:38:41.519Z,10.00
2023-05-07T20:41:12.853Z,9.80
2023-05-07T20:43:43.075Z,9.90
2023-05-07T20:46:12.512Z,9.80
2023-05-07T20:48:43.944Z,9.80
2023-05-07T20:51:14.393Z,9.60
2023-05-07T20:53:46.759Z,9.70
2023-05-07T20:56:17.260Z,9.70
2023-05-07T20:58:46.890Z,9.60
2023-05-07T21:01:16.630Z,9.50
2023-05-07T21:03:48.339Z,9.50
2023-05-07T21:06:21.123Z,9.50
2023-05-07T21:08:50.721Z,9.50
2023-05-07T21:11:20.630Z,9.30
2023-05-07T21:13:50.240Z,9.20
2023-05-07T21:16:21.063Z,9.00
2023-05-07T21:18:53.027Z,9.00
2023-05-07T21:21:22.234Z,8.80
2023-05-07T21:23:51.845Z,8.80
2023-05-07T21:26:21.367Z,8.70
2023-05-07T21:28:51.183Z,8.70
2023-05-07T21:31:21.540Z,8.60
2023-05-07T21:33:54.675Z,8.60
2023-05-07T21:36:24.205Z,8.50
2023-05-07T21:38:54.086Z,8.50
2023-05-07T21:41:23.798Z,8.50
2023-05-07T21:43:54.735Z,8.40
2023-05-07T21:46:24.310Z,8.50
2023-05-07T21:48:55.598Z,8.50
2023-05-07T21:51:25.308Z,8.50
2023-05-07T21:53:56.780Z,8.40
2023-05-07T21:56:26.411Z,8.30
2023-05-07T21:58:56.689Z,8.20
2023-05-07T22:01:27.135Z,8.00
2023-05-07T22:03:58.459Z,7.90
2023-05-07T22:06:28.264Z,7.80
2023-05-07T22:08:57.971Z,7.90
2023-05-07T22:11:27.899Z,8.00
2023-05-07T22:13:57.610Z,8.00
2023-05-07T22:16:27.249Z,7.90
2023-05-07T22:18:58.253Z,7.80
2023-05-07T22:21:27.869Z,7.70
2023-05-07T22:23:57.576Z,7.70
2023-05-07T22:26:26.971Z,7.70
2023-05-07T22:28:56.575Z,7.70
2023-05-07T22:31:26.130Z,7.60
2023-05-07T22:33:57.439Z,7.60
2023-05-07T22:36:27.033Z,7.50
2023-05-07T22:38:56.668Z,7.40
2023-05-07T22:41:26.339Z,7.30
2023-05-07T22:43:56.978Z,7.30
2023-05-07T22:46:26.725Z,7.20
2023-05-07T22:48:57.835Z,7.20
2023-05-07T22:51:28.062Z,7.20
2023-05-07T22:53:58.175Z,7.20
2023-05-07T22:56:27.878Z,7.20
2023-05-07T22:58:57.296Z,7.10
2023-05-07T23:01:27.034Z,7.10
2023-05-07T23:03:58.354Z,7.00
2023-05-07T23:06:27.950Z,7.00
2023-05-07T23:08:57.517Z,6.90
2023-05-07T23:11:27.172Z,6.70
2023-05-07T23:13:56.658Z,6.70
2023-05-07T23:16:26.203Z,6.80
2023-05-07T23:18:57.634Z,6.80
2023-05-07T23:21:27.546Z,6.80
2023-05-07T23:23:57.442Z,6.80
2023-05-07T23:26:29.719Z,6.70
2023-05-07T23:28:59.030Z,6.70
2023-05-07T23:31:28.827Z,6.60
2023-05-07T23:34:00.089Z,6.60
2023-05-07T23:36:30.400Z,6.50
2023-05-07T23:39:00.744Z,6.50
2023-05-07T23:41:30.438Z,6.40
2023-05-07T23:43:59.933Z,6.30
2023-05-07T23:46:29.738Z,6.30
2023-05-07T23:49:01.001Z,6.30
2023-05-07T23:51:30.700Z,6.30
2023-05-07T23:54:00.639Z,6.30
2023-05-07T23:56:30.242Z,6.30
2023-05-07T23:58:59.943Z,6.20
